Shingobee, Minnesota
Current Conditions -  °F | °C
As of 4:35 PM on Friday 19 Dec 2014 (Local Time) from KY49 Reporting Station
Haze Haze  
Wind Chill: 17°   Ceiling: 400
Heat Index: 23°   Visibility: 2.5mi
Dew Point: 22°   Wind: 5mph
Humidity: 96%   Direction: 160°SSE
Pressure: 30.09"   Gusts: NA
Location:  47.0507°N, 94.6083°W
Report Text: KY49 192235Z AUTO 16004KT 2 1/2SM BR OVC004 M05/M05 A3009 RMK AO2 T10501055
Loading
Personal Weather Stations






























Interactive Weather Map New forecast layout! Learn more

10-Day Weather Forecast

Advertisements
Track Severe Weather on mobile